Big Piney, WY

4:08 PM MDT on October 25, 2014 (GMT -0600)
Big Piney-Marbleton | Change Station
CLOSE
Current Station
Airport
Location: Big Piney,
Elevation: 6969 ft
Nearby Weather Stations

Elev 6969 ft 42.59 °N, 110.11 °W | Updated 15 minutes ago

Clear
Clear
69 °F
Feels Like 69 °F
N
18
Wind Variable Wind from SSW
Gusts 25 mph

Today
High -- | Low -- °F
--% Chance of Precip.
Yesterday
High -- | Low -- °F
Precip. -- in
7:45 AM 6:22 PM
Waxing Crescent, 4% visible
Pressure 29.93 in
Visibility 10.0 miles
Clouds Clear
Dew Point 22 °F
Humidity 17%
Rainfall 0.00 in
Snow Depth Not available.
UV 2 out of 12
Pollen 2.10 out of 12
Air Quality Not available.
Flu Activity Sporadic
METAR KBPI 252153Z AUTO 21016G22KT 10SM -RA CLR 21/M06 A3009 RMK AO2 SLP134 P0000 T02061056

More Conditions Fewer Conditions

Pressure 29.93 in
Visibility 10.0 miles
Clouds Clear
Dew Point 22 °F
Humidity 17%
Rainfall 0.00 in
Snow Depth Not available.
UV 2 out of 12
Pollen 2.10 out of 12
Air Quality Not available.
Flu Activity Sporadic
METAR KBPI 252153Z AUTO 21016G22KT 10SM -RA CLR 21/M06 A3009 RMK AO2 SLP134 P0000 T02061056

More Conditions Fewer Conditions

10-Day Weather Forecast

Almanac

Astronomy

Oct. 25, 2014 Rise Set
Actual Time 7:45 AM MDT 6:22 PM MDT
Civil Twilight 7:16 AM MDT 6:51 PM MDT
Nautical Twilight 6:43 AM MDT 7:24 PM MDT
Astronomical Twilight 6:11 AM MDT 7:57 PM MDT
Moon 9:29 AM MDT 7:46 PM MDT
Length of Visible Light 11h 34m
Length of Day
10h 37m
Tomorrow will be 2m 40s shorter.
Waxing Crescent, 4% of the Moon is Illuminated
Today
Waxing Crescent
Oct 30
First Quarter
Nov 6
Full
Nov 14
Last Quarter
Nov 22
New

Today's Extremes

State Highs State Lows

Community

WunderPhotos

Upload Photos

1,765,009 photos uploaded!

Nearby

Snow Depth

Station Depth Elevation
Spring Creek Divide 0 in 9000 ft
Blind Bull Summit 0 in 8900 ft
Cottonwood Creek 0 in 7600 ft
Willow Creek 3 in 8450 ft
Loomis Park 0 in 8240 ft

Earthquake Activity

City Distance Mag. Time & Date
No recent earthquake activity has been reported nearby.
Minimum magnitude displayed is 2.5.

Coastal Water Temperatures

Place Temperature
No Stations Reporting

Nearby Weather Stations